Keweenaw Bay, Michigan
Current Conditions -  °F | °C
As of 11:53 AM on Thursday 18 Dec 2014 (Local Time) from KCMX Reporting Station
Clear Clear  
Wind Chill: 24°   Ceiling: Unl
Heat Index: 24°   Visibility: 10mi
Dew Point: 17°   Wind: 3mph
Humidity: 75%   Direction: 50°NE
Pressure: 30.28"   Gusts: NA
Location:  46.811°N, 88.5098°W
Report Text: KCMX 181653Z AUTO 05003KT 10SM CLR M04/M08 A3028 RMK AO2 SLP275 T10441083
Loading
Personal Weather Stations






























Interactive Weather Map New forecast layout! Learn more

10-Day Weather Forecast

Advertisements
Track Severe Weather on mobile